sensor_id;sensor_type;location;lat;lon;timestamp;P1;durP1;ratioP1;P2;durP2;ratioP2
43529;SDS011;55654;50.966;6.878;2023-04-06T00:02:16;30.00;;;17.90;;
43529;SDS011;55654;50.966;6.878;2023-04-06T00:04:43;32.67;;;16.20;;
43529;SDS011;55654;50.966;6.878;2023-04-06T00:07:10;32.77;;;16.43;;
43529;SDS011;55654;50.966;6.878;2023-04-06T00:09:36;29.27;;;15.50;;
43529;SDS011;55654;50.966;6.878;2023-04-06T00:12:04;28.70;;;15.43;;
43529;SDS011;55654;50.966;6.878;2023-04-06T00:14:30;31.37;;;16.23;;
43529;SDS011;55654;50.966;6.878;2023-04-06T00:16:56;28.93;;;16.47;;
43529;SDS011;55654;50.966;6.878;2023-04-06T00:19:22;24.60;;;15.20;;
43529;SDS011;55654;50.966;6.878;2023-04-06T00:21:48;29.60;;;16.00;;
43529;SDS011;55654;50.966;6.878;2023-04-06T00:24:14;27.27;;;15.47;;
43529;SDS011;55654;50.966;6.878;2023-04-06T00:26:40;26.30;;;15.33;;
43529;SDS011;55654;50.966;6.878;2023-04-06T00:29:06;31.20;;;15.13;;
43529;SDS011;55654;50.966;6.878;2023-04-06T00:31:52;28.20;;;16.13;;
43529;SDS011;55654;50.966;6.878;2023-04-06T00:34:18;30.67;;;15.23;;
43529;SDS011;55654;50.966;6.878;2023-04-06T00:36:44;26.50;;;15.47;;
43529;SDS011;55654;50.966;6.878;2023-04-06T00:39:10;25.63;;;15.93;;
43529;SDS011;55654;50.966;6.878;2023-04-06T00:41:36;25.30;;;14.47;;
43529;SDS011;55654;50.966;6.878;2023-04-06T00:44:02;28.50;;;15.77;;
43529;SDS011;55654;50.966;6.878;2023-04-06T00:46:28;34.90;;;15.83;;
43529;SDS011;55654;50.966;6.878;2023-04-06T00:48:54;24.77;;;14.30;;
43529;SDS011;55654;50.966;6.878;2023-04-06T00:51:20;28.13;;;14.87;;
43529;SDS011;55654;50.966;6.878;2023-04-06T00:53:46;30.30;;;15.57;;
43529;SDS011;55654;50.966;6.878;2023-04-06T00:56:12;25.43;;;14.67;;
43529;SDS011;55654;50.966;6.878;2023-04-06T00:58:38;27.77;;;14.20;;
43529;SDS011;55654;50.966;6.878;2023-04-06T01:01:05;25.13;;;15.13;;
43529;SDS011;55654;50.966;6.878;2023-04-06T01:03:31;33.30;;;16.07;;
43529;SDS011;55654;50.966;6.878;2023-04-06T01:05:57;29.60;;;15.50;;
43529;SDS011;55654;50.966;6.878;2023-04-06T01:08:24;25.27;;;14.87;;
43529;SDS011;55654;50.966;6.878;2023-04-06T01:10:50;30.13;;;16.10;;
43529;SDS011;55654;50.966;6.878;2023-04-06T01:13:16;27.90;;;15.50;;
43529;SDS011;55654;50.966;6.878;2023-04-06T01:15:42;28.93;;;16.17;;
43529;SDS011;55654;50.966;6.878;2023-04-06T01:18:08;29.20;;;16.33;;
43529;SDS011;55654;50.966;6.878;2023-04-06T01:20:37;26.80;;;15.57;;
43529;SDS011;55654;50.966;6.878;2023-04-06T01:23:03;24.50;;;14.60;;
43529;SDS011;55654;50.966;6.878;2023-04-06T01:25:29;30.93;;;15.67;;
43529;SDS011;55654;50.966;6.878;2023-04-06T01:27:55;29.50;;;15.27;;
43529;SDS011;55654;50.966;6.878;2023-04-06T01:30:21;29.23;;;15.40;;
43529;SDS011;55654;50.966;6.878;2023-04-06T01:32:47;27.87;;;16.07;;
43529;SDS011;55654;50.966;6.878;2023-04-06T01:35:13;27.13;;;16.10;;
43529;SDS011;55654;50.966;6.878;2023-04-06T01:37:40;30.60;;;16.30;;
43529;SDS011;55654;50.966;6.878;2023-04-06T01:40:06;27.83;;;15.63;;
43529;SDS011;55654;50.966;6.878;2023-04-06T01:42:32;31.20;;;16.00;;
43529;SDS011;55654;50.966;6.878;2023-04-06T01:44:58;28.10;;;15.17;;
43529;SDS011;55654;50.966;6.878;2023-04-06T01:47:24;29.03;;;15.87;;
43529;SDS011;55654;50.966;6.878;2023-04-06T01:49:50;29.30;;;16.03;;
43529;SDS011;55654;50.966;6.878;2023-04-06T01:52:16;31.50;;;16.90;;
43529;SDS011;55654;50.966;6.878;2023-04-06T01:54:42;30.03;;;16.50;;
43529;SDS011;55654;50.966;6.878;2023-04-06T01:57:11;28.03;;;16.37;;
43529;SDS011;55654;50.966;6.878;2023-04-06T01:59:39;27.03;;;15.37;;
43529;SDS011;55654;50.966;6.878;2023-04-06T02:02:05;29.17;;;15.70;;
43529;SDS011;55654;50.966;6.878;2023-04-06T02:04:31;29.13;;;17.07;;
43529;SDS011;55654;50.966;6.878;2023-04-06T02:06:57;25.33;;;15.23;;
43529;SDS011;55654;50.966;6.878;2023-04-06T02:09:23;28.80;;;16.27;;
43529;SDS011;55654;50.966;6.878;2023-04-06T02:11:49;27.50;;;15.63;;
43529;SDS011;55654;50.966;6.878;2023-04-06T02:14:17;25.33;;;14.73;;
43529;SDS011;55654;50.966;6.878;2023-04-06T02:16:43;29.27;;;15.10;;
43529;SDS011;55654;50.966;6.878;2023-04-06T02:19:10;27.73;;;15.10;;
43529;SDS011;55654;50.966;6.878;2023-04-06T02:21:36;25.63;;;14.87;;
43529;SDS011;55654;50.966;6.878;2023-04-06T02:24:02;27.97;;;15.93;;
43529;SDS011;55654;50.966;6.878;2023-04-06T02:26:28;28.00;;;16.13;;
43529;SDS011;55654;50.966;6.878;2023-04-06T02:28:54;33.27;;;15.40;;
43529;SDS011;55654;50.966;6.878;2023-04-06T02:31:20;32.37;;;17.13;;
43529;SDS011;55654;50.966;6.878;2023-04-06T02:33:51;27.80;;;16.23;;
43529;SDS011;55654;50.966;6.878;2023-04-06T02:36:17;29.20;;;16.30;;
43529;SDS011;55654;50.966;6.878;2023-04-06T02:38:43;25.53;;;15.00;;
43529;SDS011;55654;50.966;6.878;2023-04-06T02:41:09;28.40;;;15.87;;
43529;SDS011;55654;50.966;6.878;2023-04-06T02:43:35;34.77;;;16.23;;
43529;SDS011;55654;50.966;6.878;2023-04-06T02:46:01;32.07;;;16.83;;
43529;SDS011;55654;50.966;6.878;2023-04-06T02:48:27;28.87;;;16.27;;
43529;SDS011;55654;50.966;6.878;2023-04-06T02:50:53;25.73;;;15.60;;
43529;SDS011;55654;50.966;6.878;2023-04-06T02:53:19;28.53;;;15.50;;
43529;SDS011;55654;50.966;6.878;2023-04-06T02:55:45;30.87;;;15.37;;
43529;SDS011;55654;50.966;6.878;2023-04-06T02:58:11;29.27;;;15.60;;
43529;SDS011;55654;50.966;6.878;2023-04-06T03:00:37;27.23;;;15.87;;
43529;SDS011;55654;50.966;6.878;2023-04-06T03:03:03;27.90;;;16.17;;
43529;SDS011;55654;50.966;6.878;2023-04-06T03:05:29;26.70;;;15.27;;
43529;SDS011;55654;50.966;6.878;2023-04-06T03:07:55;27.27;;;15.67;;
43529;SDS011;55654;50.966;6.878;2023-04-06T03:10:21;27.17;;;15.37;;
43529;SDS011;55654;50.966;6.878;2023-04-06T03:12:47;25.87;;;14.67;;
43529;SDS011;55654;50.966;6.878;2023-04-06T03:15:13;31.67;;;15.43;;
43529;SDS011;55654;50.966;6.878;2023-04-06T03:17:39;29.93;;;16.43;;
43529;SDS011;55654;50.966;6.878;2023-04-06T03:20:05;28.60;;;16.73;;
43529;SDS011;55654;50.966;6.878;2023-04-06T03:22:32;25.80;;;14.87;;
43529;SDS011;55654;50.966;6.878;2023-04-06T03:24:58;27.83;;;15.43;;
43529;SDS011;55654;50.966;6.878;2023-04-06T03:27:24;33.90;;;16.47;;
43529;SDS011;55654;50.966;6.878;2023-04-06T03:29:50;24.43;;;15.17;;
43529;SDS011;55654;50.966;6.878;2023-04-06T03:32:16;27.77;;;14.87;;
43529;SDS011;55654;50.966;6.878;2023-04-06T03:34:42;25.33;;;15.30;;
43529;SDS011;55654;50.966;6.878;2023-04-06T03:37:08;28.43;;;14.80;;
43529;SDS011;55654;50.966;6.878;2023-04-06T03:39:34;27.77;;;16.20;;
43529;SDS011;55654;50.966;6.878;2023-04-06T03:42:00;25.17;;;14.77;;
43529;SDS011;55654;50.966;6.878;2023-04-06T03:44:26;25.40;;;14.93;;
43529;SDS011;55654;50.966;6.878;2023-04-06T03:46:52;25.60;;;15.00;;
43529;SDS011;55654;50.966;6.878;2023-04-06T03:49:20;25.03;;;15.50;;
43529;SDS011;55654;50.966;6.878;2023-04-06T03:51:46;26.17;;;14.80;;
43529;SDS011;55654;50.966;6.878;2023-04-06T03:54:12;25.73;;;14.50;;
43529;SDS011;55654;50.966;6.878;2023-04-06T03:56:38;27.73;;;15.83;;
43529;SDS011;55654;50.966;6.878;2023-04-06T03:59:04;25.47;;;13.90;;
43529;SDS011;55654;50.966;6.878;2023-04-06T04:01:30;27.20;;;15.27;;
43529;SDS011;55654;50.966;6.878;2023-04-06T04:03:56;26.07;;;15.57;;
43529;SDS011;55654;50.966;6.878;2023-04-06T04:06:22;30.17;;;15.87;;
43529;SDS011;55654;50.966;6.878;2023-04-06T04:08:48;25.20;;;14.87;;
43529;SDS011;55654;50.966;6.878;2023-04-06T04:11:14;27.07;;;15.47;;
43529;SDS011;55654;50.966;6.878;2023-04-06T04:13:43;26.70;;;15.43;;
43529;SDS011;55654;50.966;6.878;2023-04-06T04:16:09;25.53;;;15.07;;
43529;SDS011;55654;50.966;6.878;2023-04-06T04:18:35;23.70;;;15.17;;
43529;SDS011;55654;50.966;6.878;2023-04-06T04:21:01;29.70;;;14.93;;
43529;SDS011;55654;50.966;6.878;2023-04-06T04:23:27;27.07;;;14.33;;
43529;SDS011;55654;50.966;6.878;2023-04-06T04:25:53;24.63;;;14.33;;
43529;SDS011;55654;50.966;6.878;2023-04-06T04:28:19;25.83;;;14.33;;
43529;SDS011;55654;50.966;6.878;2023-04-06T04:30:45;27.70;;;14.93;;
43529;SDS011;55654;50.966;6.878;2023-04-06T04:33:12;26.37;;;14.37;;
43529;SDS011;55654;50.966;6.878;2023-04-06T04:35:38;22.27;;;13.83;;
43529;SDS011;55654;50.966;6.878;2023-04-06T04:38:04;23.23;;;13.73;;
43529;SDS011;55654;50.966;6.878;2023-04-06T04:40:30;24.27;;;14.20;;
43529;SDS011;55654;50.966;6.878;2023-04-06T04:42:56;23.90;;;13.90;;
43529;SDS011;55654;50.966;6.878;2023-04-06T04:45:22;25.83;;;14.53;;
43529;SDS011;55654;50.966;6.878;2023-04-06T04:47:48;23.53;;;14.33;;
43529;SDS011;55654;50.966;6.878;2023-04-06T04:50:14;22.27;;;13.37;;
43529;SDS011;55654;50.966;6.878;2023-04-06T04:52:40;23.63;;;14.40;;
43529;SDS011;55654;50.966;6.878;2023-04-06T04:55:06;21.33;;;13.13;;
43529;SDS011;55654;50.966;6.878;2023-04-06T04:57:32;27.43;;;14.20;;
43529;SDS011;55654;50.966;6.878;2023-04-06T04:59:58;19.97;;;12.93;;
43529;SDS011;55654;50.966;6.878;2023-04-06T05:02:24;21.60;;;12.40;;
43529;SDS011;55654;50.966;6.878;2023-04-06T05:04:50;30.07;;;14.47;;
43529;SDS011;55654;50.966;6.878;2023-04-06T05:07:16;21.87;;;13.77;;
43529;SDS011;55654;50.966;6.878;2023-04-06T05:09:43;24.50;;;14.07;;
43529;SDS011;55654;50.966;6.878;2023-04-06T05:12:10;22.30;;;13.77;;
43529;SDS011;55654;50.966;6.878;2023-04-06T05:14:36;23.53;;;14.13;;
43529;SDS011;55654;50.966;6.878;2023-04-06T05:17:02;24.33;;;13.77;;
43529;SDS011;55654;50.966;6.878;2023-04-06T05:19:30;20.37;;;13.87;;
43529;SDS011;55654;50.966;6.878;2023-04-06T05:21:56;27.27;;;14.23;;
43529;SDS011;55654;50.966;6.878;2023-04-06T05:24:22;25.13;;;14.17;;
43529;SDS011;55654;50.966;6.878;2023-04-06T05:26:48;23.80;;;14.10;;
43529;SDS011;55654;50.966;6.878;2023-04-06T05:29:15;22.20;;;12.03;;
43529;SDS011;55654;50.966;6.878;2023-04-06T05:31:41;26.17;;;12.90;;
43529;SDS011;55654;50.966;6.878;2023-04-06T05:34:07;21.33;;;13.23;;
43529;SDS011;55654;50.966;6.878;2023-04-06T05:36:34;18.87;;;12.13;;
43529;SDS011;55654;50.966;6.878;2023-04-06T05:39:02;22.30;;;13.53;;
43529;SDS011;55654;50.966;6.878;2023-04-06T05:41:28;19.87;;;12.87;;
43529;SDS011;55654;50.966;6.878;2023-04-06T05:43:55;20.87;;;11.93;;
43529;SDS011;55654;50.966;6.878;2023-04-06T05:46:21;22.37;;;13.37;;
43529;SDS011;55654;50.966;6.878;2023-04-06T05:48:47;20.47;;;12.10;;
43529;SDS011;55654;50.966;6.878;2023-04-06T05:51:13;23.43;;;13.90;;
43529;SDS011;55654;50.966;6.878;2023-04-06T05:53:41;26.20;;;13.67;;
43529;SDS011;55654;50.966;6.878;2023-04-06T05:56:07;27.93;;;13.13;;
43529;SDS011;55654;50.966;6.878;2023-04-06T05:58:34;20.67;;;11.97;;
43529;SDS011;55654;50.966;6.878;2023-04-06T06:01:00;21.50;;;11.97;;
43529;SDS011;55654;50.966;6.878;2023-04-06T06:03:29;22.27;;;11.87;;
43529;SDS011;55654;50.966;6.878;2023-04-06T06:06:02;25.37;;;13.03;;
43529;SDS011;55654;50.966;6.878;2023-04-06T06:08:29;22.75;;;13.32;;
43529;SDS011;55654;50.966;6.878;2023-04-06T06:10:57;19.10;;;12.80;;
43529;SDS011;55654;50.966;6.878;2023-04-06T06:13:23;17.87;;;11.00;;
43529;SDS011;55654;50.966;6.878;2023-04-06T06:15:49;19.27;;;10.53;;
43529;SDS011;55654;50.966;6.878;2023-04-06T06:18:15;16.83;;;11.00;;
43529;SDS011;55654;50.966;6.878;2023-04-06T06:20:42;18.40;;;10.83;;
43529;SDS011;55654;50.966;6.878;2023-04-06T06:23:08;19.80;;;11.00;;
43529;SDS011;55654;50.966;6.878;2023-04-06T06:25:36;24.73;;;12.43;;
43529;SDS011;55654;50.966;6.878;2023-04-06T06:28:02;18.67;;;11.30;;
43529;SDS011;55654;50.966;6.878;2023-04-06T06:30:30;22.53;;;12.17;;
43529;SDS011;55654;50.966;6.878;2023-04-06T06:35:42;19.77;;;10.90;;
43529;SDS011;55654;50.966;6.878;2023-04-06T06:38:08;20.47;;;12.10;;
43529;SDS011;55654;50.966;6.878;2023-04-06T06:40:34;16.50;;;10.07;;
43529;SDS011;55654;50.966;6.878;2023-04-06T06:43:00;19.43;;;11.53;;
43529;SDS011;55654;50.966;6.878;2023-04-06T06:45:26;17.13;;;10.17;;
43529;SDS011;55654;50.966;6.878;2023-04-06T06:47:54;17.27;;;11.23;;
43529;SDS011;55654;50.966;6.878;2023-04-06T06:50:20;19.77;;;10.47;;
43529;SDS011;55654;50.966;6.878;2023-04-06T06:52:46;18.13;;;10.20;;
43529;SDS011;55654;50.966;6.878;2023-04-06T06:55:12;14.50;;;9.87;;
43529;SDS011;55654;50.966;6.878;2023-04-06T06:57:38;18.60;;;9.70;;
43529;SDS011;55654;50.966;6.878;2023-04-06T07:00:07;16.40;;;9.90;;
43529;SDS011;55654;50.966;6.878;2023-04-06T07:02:34;17.07;;;10.20;;
43529;SDS011;55654;50.966;6.878;2023-04-06T07:05:03;17.80;;;9.60;;
43529;SDS011;55654;50.966;6.878;2023-04-06T07:07:30;14.73;;;9.73;;
43529;SDS011;55654;50.966;6.878;2023-04-06T07:09:56;17.37;;;10.40;;
43529;SDS011;55654;50.966;6.878;2023-04-06T07:12:21;16.70;;;10.17;;
43529;SDS011;55654;50.966;6.878;2023-04-06T07:14:47;18.17;;;9.47;;
43529;SDS011;55654;50.966;6.878;2023-04-06T07:17:13;18.73;;;9.63;;
43529;SDS011;55654;50.966;6.878;2023-04-06T07:19:39;15.07;;;9.10;;
43529;SDS011;55654;50.966;6.878;2023-04-06T07:22:06;14.47;;;9.40;;
43529;SDS011;55654;50.966;6.878;2023-04-06T07:24:32;15.00;;;8.97;;
43529;SDS011;55654;50.966;6.878;2023-04-06T07:26:58;16.73;;;9.40;;
43529;SDS011;55654;50.966;6.878;2023-04-06T07:29:25;18.30;;;10.07;;
43529;SDS011;55654;50.966;6.878;2023-04-06T07:31:52;16.80;;;10.10;;
43529;SDS011;55654;50.966;6.878;2023-04-06T07:34:18;18.73;;;9.50;;
43529;SDS011;55654;50.966;6.878;2023-04-06T07:36:44;16.57;;;10.13;;
43529;SDS011;55654;50.966;6.878;2023-04-06T07:39:10;19.17;;;9.23;;
43529;SDS011;55654;50.966;6.878;2023-04-06T07:41:36;21.87;;;9.70;;
43529;SDS011;55654;50.966;6.878;2023-04-06T07:44:03;16.60;;;9.53;;
43529;SDS011;55654;50.966;6.878;2023-04-06T07:46:29;15.73;;;9.60;;
43529;SDS011;55654;50.966;6.878;2023-04-06T07:48:59;14.43;;;10.10;;
43529;SDS011;55654;50.966;6.878;2023-04-06T07:51:26;15.30;;;10.37;;
43529;SDS011;55654;50.966;6.878;2023-04-06T07:53:52;16.93;;;9.57;;
43529;SDS011;55654;50.966;6.878;2023-04-06T07:56:18;17.17;;;10.47;;
43529;SDS011;55654;50.966;6.878;2023-04-06T07:58:45;15.47;;;10.63;;
43529;SDS011;55654;50.966;6.878;2023-04-06T08:01:14;16.27;;;9.93;;
43529;SDS011;55654;50.966;6.878;2023-04-06T08:03:40;16.73;;;9.90;;
43529;SDS011;55654;50.966;6.878;2023-04-06T08:06:06;21.43;;;10.50;;
43529;SDS011;55654;50.966;6.878;2023-04-06T08:08:32;17.03;;;9.30;;
43529;SDS011;55654;50.966;6.878;2023-04-06T08:10:58;15.07;;;9.93;;
43529;SDS011;55654;50.966;6.878;2023-04-06T08:13:24;17.10;;;10.43;;
43529;SDS011;55654;50.966;6.878;2023-04-06T08:15:50;15.43;;;10.37;;
43529;SDS011;55654;50.966;6.878;2023-04-06T08:18:16;19.83;;;10.47;;
43529;SDS011;55654;50.966;6.878;2023-04-06T08:20:42;17.73;;;10.07;;
43529;SDS011;55654;50.966;6.878;2023-04-06T08:23:08;18.07;;;9.23;;
43529;SDS011;55654;50.966;6.878;2023-04-06T08:25:36;16.23;;;9.87;;
43529;SDS011;55654;50.966;6.878;2023-04-06T08:28:03;20.73;;;11.00;;
43529;SDS011;55654;50.966;6.878;2023-04-06T08:30:31;15.70;;;9.80;;
43529;SDS011;55654;50.966;6.878;2023-04-06T08:32:57;15.93;;;10.17;;
43529;SDS011;55654;50.966;6.878;2023-04-06T08:35:23;20.33;;;10.47;;
43529;SDS011;55654;50.966;6.878;2023-04-06T08:37:52;15.00;;;8.93;;
43529;SDS011;55654;50.966;6.878;2023-04-06T08:40:18;19.27;;;10.23;;
43529;SDS011;55654;50.966;6.878;2023-04-06T08:42:44;19.87;;;10.47;;
43529;SDS011;55654;50.966;6.878;2023-04-06T08:45:13;19.33;;;10.33;;
43529;SDS011;55654;50.966;6.878;2023-04-06T08:47:40;18.97;;;9.73;;
43529;SDS011;55654;50.966;6.878;2023-04-06T08:50:08;17.30;;;9.80;;
43529;SDS011;55654;50.966;6.878;2023-04-06T08:52:36;14.97;;;10.23;;
43529;SDS011;55654;50.966;6.878;2023-04-06T08:55:02;17.67;;;10.17;;
43529;SDS011;55654;50.966;6.878;2023-04-06T08:57:28;17.90;;;10.57;;
43529;SDS011;55654;50.966;6.878;2023-04-06T08:59:54;16.00;;;9.57;;
43529;SDS011;55654;50.966;6.878;2023-04-06T09:02:21;18.10;;;10.63;;
43529;SDS011;55654;50.966;6.878;2023-04-06T09:04:48;16.57;;;11.10;;
43529;SDS011;55654;50.966;6.878;2023-04-06T09:07:15;16.70;;;9.80;;
43529;SDS011;55654;50.966;6.878;2023-04-06T09:09:41;19.73;;;10.23;;
43529;SDS011;55654;50.966;6.878;2023-04-06T09:12:34;20.63;;;10.17;;
43529;SDS011;55654;50.966;6.878;2023-04-06T09:14:59;17.43;;;10.00;;
43529;SDS011;55654;50.966;6.878;2023-04-06T09:20:02;17.33;;;10.87;;
43529;SDS011;55654;50.966;6.878;2023-04-06T09:22:40;18.47;;;10.90;;
43529;SDS011;55654;50.966;6.878;2023-04-06T09:25:08;17.37;;;10.17;;
43529;SDS011;55654;50.966;6.878;2023-04-06T09:27:35;21.67;;;10.20;;
43529;SDS011;55654;50.966;6.878;2023-04-06T09:32:31;21.47;;;10.90;;
43529;SDS011;55654;50.966;6.878;2023-04-06T09:35:07;18.43;;;11.07;;
43529;SDS011;55654;50.966;6.878;2023-04-06T09:37:33;19.57;;;10.77;;
43529;SDS011;55654;50.966;6.878;2023-04-06T09:40:06;20.40;;;10.40;;
43529;SDS011;55654;50.966;6.878;2023-04-06T09:42:32;15.07;;;9.80;;
43529;SDS011;55654;50.966;6.878;2023-04-06T09:44:59;16.57;;;10.13;;
43529;SDS011;55654;50.966;6.878;2023-04-06T09:47:25;17.57;;;10.30;;
43529;SDS011;55654;50.966;6.878;2023-04-06T09:49:55;19.33;;;11.53;;
43529;SDS011;55654;50.966;6.878;2023-04-06T09:52:24;17.20;;;10.53;;
43529;SDS011;55654;50.966;6.878;2023-04-06T09:54:51;16.27;;;10.20;;
43529;SDS011;55654;50.966;6.878;2023-04-06T10:00:05;17.60;;;10.53;;
43529;SDS011;55654;50.966;6.878;2023-04-06T10:05:30;20.13;;;11.50;;
43529;SDS011;55654;50.966;6.878;2023-04-06T10:07:59;19.73;;;10.90;;
43529;SDS011;55654;50.966;6.878;2023-04-06T10:10:29;19.63;;;11.00;;
43529;SDS011;55654;50.966;6.878;2023-04-06T10:12:55;18.97;;;11.67;;
43529;SDS011;55654;50.966;6.878;2023-04-06T10:15:22;20.47;;;11.87;;
43529;SDS011;55654;50.966;6.878;2023-04-06T10:17:49;23.27;;;12.00;;
43529;SDS011;55654;50.966;6.878;2023-04-06T10:20:27;23.37;;;11.53;;
43529;SDS011;55654;50.966;6.878;2023-04-06T10:22:55;23.57;;;12.00;;
43529;SDS011;55654;50.966;6.878;2023-04-06T10:25:30;25.50;;;11.97;;
43529;SDS011;55654;50.966;6.878;2023-04-06T10:28:15;19.17;;;11.23;;
43529;SDS011;55654;50.966;6.878;2023-04-06T10:30:45;17.97;;;11.20;;
43529;SDS011;55654;50.966;6.878;2023-04-06T10:33:19;23.17;;;11.97;;
43529;SDS011;55654;50.966;6.878;2023-04-06T10:35:45;21.90;;;11.93;;
43529;SDS011;55654;50.966;6.878;2023-04-06T10:38:11;23.00;;;12.30;;
43529;SDS011;55654;50.966;6.878;2023-04-06T10:40:39;20.23;;;11.73;;
43529;SDS011;55654;50.966;6.878;2023-04-06T10:43:18;22.23;;;12.33;;
43529;SDS011;55654;50.966;6.878;2023-04-06T10:45:45;23.80;;;13.33;;
43529;SDS011;55654;50.966;6.878;2023-04-06T10:48:20;19.87;;;11.70;;
43529;SDS011;55654;50.966;6.878;2023-04-06T10:50:50;20.80;;;11.77;;
43529;SDS011;55654;50.966;6.878;2023-04-06T10:53:23;23.47;;;11.77;;
43529;SDS011;55654;50.966;6.878;2023-04-06T10:55:50;20.90;;;12.38;;
43529;SDS011;55654;50.966;6.878;2023-04-06T10:58:16;24.80;;;11.90;;
43529;SDS011;55654;50.966;6.878;2023-04-06T11:00:46;18.80;;;12.55;;
43529;SDS011;55654;50.966;6.878;2023-04-06T11:03:12;23.17;;;12.70;;
43529;SDS011;55654;50.966;6.878;2023-04-06T11:05:38;20.88;;;12.52;;
43529;SDS011;55654;50.966;6.878;2023-04-06T11:08:08;21.27;;;11.80;;
43529;SDS011;55654;50.966;6.878;2023-04-06T11:10:34;20.33;;;11.88;;
43529;SDS011;55654;50.966;6.878;2023-04-06T11:13:00;20.10;;;12.55;;
43529;SDS011;55654;50.966;6.878;2023-04-06T11:15:33;21.83;;;12.82;;
43529;SDS011;55654;50.966;6.878;2023-04-06T11:18:02;22.42;;;12.35;;
43529;SDS011;55654;50.966;6.878;2023-04-06T11:20:28;19.73;;;12.68;;
43529;SDS011;55654;50.966;6.878;2023-04-06T11:22:57;20.45;;;11.82;;
43529;SDS011;55654;50.966;6.878;2023-04-06T11:25:24;18.73;;;12.02;;
43529;SDS011;55654;50.966;6.878;2023-04-06T11:27:55;20.60;;;12.95;;
43529;SDS011;55654;50.966;6.878;2023-04-06T11:30:21;20.23;;;12.02;;
43529;SDS011;55654;50.966;6.878;2023-04-06T11:32:47;23.08;;;12.27;;
43529;SDS011;55654;50.966;6.878;2023-04-06T11:35:20;19.95;;;11.82;;
43529;SDS011;55654;50.966;6.878;2023-04-06T11:37:46;20.23;;;12.55;;
43529;SDS011;55654;50.966;6.878;2023-04-06T11:40:12;21.67;;;12.33;;
43529;SDS011;55654;50.966;6.878;2023-04-06T11:42:38;19.43;;;12.23;;
43529;SDS011;55654;50.966;6.878;2023-04-06T11:45:04;21.00;;;11.60;;
43529;SDS011;55654;50.966;6.878;2023-04-06T11:47:34;20.63;;;12.40;;
43529;SDS011;55654;50.966;6.878;2023-04-06T11:50:07;20.85;;;12.15;;
43529;SDS011;55654;50.966;6.878;2023-04-06T11:52:35;16.63;;;10.90;;
43529;SDS011;55654;50.966;6.878;2023-04-06T11:55:17;17.27;;;11.45;;
43529;SDS011;55654;50.966;6.878;2023-04-06T11:57:44;16.15;;;11.38;;
43529;SDS011;55654;50.966;6.878;2023-04-06T12:00:12;19.02;;;11.55;;
43529;SDS011;55654;50.966;6.878;2023-04-06T12:02:39;17.95;;;11.93;;
43529;SDS011;55654;50.966;6.878;2023-04-06T12:05:05;16.58;;;10.95;;
43529;SDS011;55654;50.966;6.878;2023-04-06T12:07:33;14.63;;;10.85;;
43529;SDS011;55654;50.966;6.878;2023-04-06T12:10:00;18.65;;;12.63;;
43529;SDS011;55654;50.966;6.878;2023-04-06T12:12:27;21.65;;;13.10;;
43529;SDS011;55654;50.966;6.878;2023-04-06T12:14:53;20.02;;;13.07;;
43529;SDS011;55654;50.966;6.878;2023-04-06T12:17:20;23.15;;;12.32;;
43529;SDS011;55654;50.966;6.878;2023-04-06T12:19:48;18.48;;;11.98;;
43529;SDS011;55654;50.966;6.878;2023-04-06T12:22:17;22.52;;;12.77;;
43529;SDS011;55654;50.966;6.878;2023-04-06T12:24:45;22.83;;;13.02;;
43529;SDS011;55654;50.966;6.878;2023-04-06T12:27:11;22.03;;;12.13;;
43529;SDS011;55654;50.966;6.878;2023-04-06T12:29:37;14.67;;;10.40;;
43529;SDS011;55654;50.966;6.878;2023-04-06T12:32:06;22.63;;;12.60;;
43529;SDS011;55654;50.966;6.878;2023-04-06T12:34:33;19.37;;;11.83;;
43529;SDS011;55654;50.966;6.878;2023-04-06T12:36:59;20.73;;;12.00;;
43529;SDS011;55654;50.966;6.878;2023-04-06T12:39:27;22.00;;;10.90;;
43529;SDS011;55654;50.966;6.878;2023-04-06T12:41:53;18.73;;;11.80;;
43529;SDS011;55654;50.966;6.878;2023-04-06T12:44:20;24.20;;;12.63;;
43529;SDS011;55654;50.966;6.878;2023-04-06T12:46:46;17.13;;;10.48;;
43529;SDS011;55654;50.966;6.878;2023-04-06T12:49:12;22.05;;;11.48;;
43529;SDS011;55654;50.966;6.878;2023-04-06T12:51:40;16.23;;;10.75;;
43529;SDS011;55654;50.966;6.878;2023-04-06T12:54:06;25.37;;;11.70;;
43529;SDS011;55654;50.966;6.878;2023-04-06T12:56:32;18.40;;;9.73;;
43529;SDS011;55654;50.966;6.878;2023-04-06T12:58:59;15.63;;;9.50;;
43529;SDS011;55654;50.966;6.878;2023-04-06T13:01:25;14.63;;;8.63;;
43529;SDS011;55654;50.966;6.878;2023-04-06T13:03:52;16.77;;;7.80;;
43529;SDS011;55654;50.966;6.878;2023-04-06T13:06:18;10.10;;;6.43;;
43529;SDS011;55654;50.966;6.878;2023-04-06T13:08:45;12.13;;;7.90;;
43529;SDS011;55654;50.966;6.878;2023-04-06T13:11:12;11.47;;;6.90;;
43529;SDS011;55654;50.966;6.878;2023-04-06T13:13:38;16.07;;;7.67;;
43529;SDS011;55654;50.966;6.878;2023-04-06T13:16:05;12.00;;;7.00;;
43529;SDS011;55654;50.966;6.878;2023-04-06T13:18:31;17.63;;;7.40;;
43529;SDS011;55654;50.966;6.878;2023-04-06T13:20:58;12.40;;;7.30;;
43529;SDS011;55654;50.966;6.878;2023-04-06T13:23:27;12.77;;;7.80;;
43529;SDS011;55654;50.966;6.878;2023-04-06T13:26:00;9.20;;;6.70;;
43529;SDS011;55654;50.966;6.878;2023-04-06T13:28:26;9.97;;;6.67;;
43529;SDS011;55654;50.966;6.878;2023-04-06T13:33:47;10.50;;;7.10;;
43529;SDS011;55654;50.966;6.878;2023-04-06T13:36:13;9.53;;;6.33;;
43529;SDS011;55654;50.966;6.878;2023-04-06T13:38:41;14.13;;;7.03;;
43529;SDS011;55654;50.966;6.878;2023-04-06T13:41:07;13.20;;;6.47;;
43529;SDS011;55654;50.966;6.878;2023-04-06T13:43:33;11.87;;;6.60;;
43529;SDS011;55654;50.966;6.878;2023-04-06T13:45:59;11.90;;;7.03;;
43529;SDS011;55654;50.966;6.878;2023-04-06T13:48:26;10.60;;;6.87;;
43529;SDS011;55654;50.966;6.878;2023-04-06T13:50:52;11.03;;;7.53;;
43529;SDS011;55654;50.966;6.878;2023-04-06T13:53:18;11.43;;;7.17;;
43529;SDS011;55654;50.966;6.878;2023-04-06T13:55:55;14.50;;;7.70;;
43529;SDS011;55654;50.966;6.878;2023-04-06T13:58:22;13.70;;;7.50;;
43529;SDS011;55654;50.966;6.878;2023-04-06T14:00:48;13.10;;;8.53;;
43529;SDS011;55654;50.966;6.878;2023-04-06T14:03:14;15.67;;;9.40;;
43529;SDS011;55654;50.966;6.878;2023-04-06T14:05:40;13.23;;;9.17;;
43529;SDS011;55654;50.966;6.878;2023-04-06T14:08:08;17.47;;;9.53;;
43529;SDS011;55654;50.966;6.878;2023-04-06T14:10:38;13.00;;;8.40;;
43529;SDS011;55654;50.966;6.878;2023-04-06T14:13:07;9.53;;;5.93;;
43529;SDS011;55654;50.966;6.878;2023-04-06T14:15:34;8.60;;;5.63;;
43529;SDS011;55654;50.966;6.878;2023-04-06T14:18:00;8.83;;;6.20;;
43529;SDS011;55654;50.966;6.878;2023-04-06T14:20:26;9.80;;;7.17;;
43529;SDS011;55654;50.966;6.878;2023-04-06T14:22:52;12.97;;;6.90;;
43529;SDS011;55654;50.966;6.878;2023-04-06T14:25:19;11.87;;;7.27;;
43529;SDS011;55654;50.966;6.878;2023-04-06T14:27:46;10.93;;;6.73;;
43529;SDS011;55654;50.966;6.878;2023-04-06T14:30:12;10.97;;;7.10;;
43529;SDS011;55654;50.966;6.878;2023-04-06T14:32:38;11.90;;;6.87;;
43529;SDS011;55654;50.966;6.878;2023-04-06T14:35:05;10.20;;;6.87;;
43529;SDS011;55654;50.966;6.878;2023-04-06T14:37:31;9.10;;;6.20;;
43529;SDS011;55654;50.966;6.878;2023-04-06T14:39:57;8.70;;;5.73;;